createdAt,value
2022-08-19T00:01:52.887Z,99.30
2022-08-19T00:04:25.299Z,99.20
2022-08-19T00:06:54.063Z,98.90
2022-08-19T00:09:23.564Z,99.00
2022-08-19T00:11:52.711Z,99.00
2022-08-19T00:14:22.826Z,98.90
2022-08-19T00:16:52.436Z,98.80
2022-08-19T00:19:22.119Z,98.80
2022-08-19T00:21:50.345Z,98.80
2022-08-19T00:24:18.485Z,98.80
2022-08-19T00:26:47.303Z,99.00
2022-08-19T00:29:17.606Z,99.00
2022-08-19T00:31:46.007Z,98.70
2022-08-19T00:34:15.203Z,98.70
2022-08-19T00:36:45.188Z,98.60
2022-08-19T00:39:14.718Z,98.80
2022-08-19T00:41:44.069Z,98.70
2022-08-19T00:44:15.289Z,98.90
2022-08-19T00:46:51.604Z,98.70
2022-08-19T00:49:31.713Z,98.80
2022-08-19T00:52:06.299Z,98.90
2022-08-19T00:54:34.666Z,98.70
2022-08-19T00:57:07.047Z,98.60
2022-08-19T00:59:53.350Z,99.00
2022-08-19T01:02:28.541Z,98.80
2022-08-19T01:04:57.370Z,98.60
2022-08-19T01:07:26.988Z,98.80
2022-08-19T01:09:55.616Z,98.70
2022-08-19T01:12:24.438Z,98.90
2022-08-19T01:14:53.439Z,98.70
2022-08-19T01:17:22.367Z,98.90
2022-08-19T01:19:50.781Z,98.80
2022-08-19T01:22:30.187Z,98.40
2022-08-19T01:25:03.542Z,98.80
2022-08-19T01:27:43.648Z,98.80
2022-08-19T01:30:15.932Z,98.70
2022-08-19T01:32:44.388Z,98.70
2022-08-19T01:35:15.138Z,98.90
2022-08-19T01:37:50.734Z,98.90
2022-08-19T01:40:21.401Z,98.70
2022-08-19T01:42:50.478Z,98.60
2022-08-19T01:45:19.307Z,98.70
2022-08-19T01:48:01.264Z,98.60
2022-08-19T01:50:31.778Z,98.60
2022-08-19T01:53:06.257Z,98.30
2022-08-19T01:55:41.380Z,98.40
2022-08-19T01:58:13.522Z,98.70
2022-08-19T02:00:42.097Z,98.70
2022-08-19T02:03:12.124Z,98.80
2022-08-19T02:05:41.121Z,98.90
2022-08-19T02:08:09.811Z,99.10
2022-08-19T02:10:41.504Z,99.20
2022-08-19T02:13:09.733Z,99.00
2022-08-19T02:15:39.247Z,99.20
2022-08-19T02:18:08.302Z,99.10
2022-08-19T02:20:37.431Z,98.80
2022-08-19T02:23:05.624Z,98.90
2022-08-19T02:25:47.493Z,98.70
2022-08-19T02:28:18.751Z,98.90
2022-08-19T02:30:48.870Z,98.90
2022-08-19T02:33:17.298Z,98.80
2022-08-19T02:35:46.258Z,98.50
2022-08-19T02:38:29.855Z,98.70
2022-08-19T02:41:01.398Z,98.70
2022-08-19T02:43:33.619Z,98.60
2022-08-19T02:46:02.133Z,98.40
2022-08-19T02:48:31.006Z,98.40
2022-08-19T02:50:59.146Z,98.70
2022-08-19T02:53:29.626Z,98.50
2022-08-19T02:55:59.684Z,98.70
2022-08-19T02:58:28.650Z,98.40
2022-08-19T03:00:58.966Z,98.90
2022-08-19T03:03:27.170Z,98.80
2022-08-19T03:06:08.906Z,98.80
2022-08-19T03:08:37.922Z,98.70
2022-08-19T03:11:07.881Z,99.30
2022-08-19T03:13:36.803Z,99.20
2022-08-19T03:16:07.315Z,99.30
2022-08-19T03:18:35.379Z,99.20
2022-08-19T03:21:03.690Z,99.30
2022-08-19T03:23:31.751Z,99.20
2022-08-19T03:26:16.218Z,99.10
2022-08-19T03:28:51.742Z,99.40
2022-08-19T03:31:44.942Z,99.20
2022-08-19T03:34:19.738Z,99.20
2022-08-19T03:36:48.861Z,99.00
2022-08-19T03:39:17.538Z,98.90
2022-08-19T03:41:48.503Z,98.80
2022-08-19T03:44:21.531Z,98.80
2022-08-19T03:46:52.013Z,98.70
2022-08-19T03:49:20.853Z,98.90
2022-08-19T03:51:50.515Z,98.80
2022-08-19T03:54:20.816Z,98.80
2022-08-19T03:56:50.739Z,98.70
2022-08-19T03:59:26.072Z,98.50
2022-08-19T04:01:55.499Z,98.60
2022-08-19T04:04:23.574Z,98.50
2022-08-19T04:06:52.378Z,98.60
2022-08-19T04:09:21.590Z,98.60
2022-08-19T04:11:54.633Z,98.80
2022-08-19T04:14:26.707Z,98.80
2022-08-19T04:16:55.280Z,98.80
2022-08-19T04:19:24.293Z,99.00
2022-08-19T04:21:54.847Z,99.00
2022-08-19T04:24:24.497Z,99.00
2022-08-19T04:26:52.992Z,98.90
2022-08-19T04:29:26.067Z,98.90
2022-08-19T04:31:56.479Z,98.70
2022-08-19T04:34:26.538Z,99.00
2022-08-19T04:36:56.161Z,99.00
2022-08-19T04:39:47.154Z,99.00
2022-08-19T04:42:32.962Z,98.90
2022-08-19T04:45:03.814Z,99.20
2022-08-19T04:47:49.287Z,99.10
2022-08-19T04:50:23.615Z,99.50
2022-08-19T04:52:53.440Z,99.90
2022-08-19T04:55:21.582Z,99.90
2022-08-19T04:57:49.839Z,99.90
2022-08-19T05:00:19.496Z,99.90
2022-08-19T05:02:47.908Z,99.70
2022-08-19T05:05:16.014Z,99.80
2022-08-19T05:07:44.081Z,99.90
2022-08-19T05:10:12.605Z,99.90
2022-08-19T05:12:40.754Z,99.90
2022-08-19T05:15:10.338Z,99.80
2022-08-19T05:17:59.881Z,99.90
2022-08-19T05:20:45.328Z,99.90
2022-08-19T05:23:21.848Z,99.90
2022-08-19T05:25:52.553Z,99.80
2022-08-19T05:28:20.808Z,99.80
2022-08-19T05:30:49.105Z,99.70
2022-08-19T05:33:19.074Z,99.90
2022-08-19T05:35:47.262Z,99.90
2022-08-19T05:38:15.427Z,99.90
2022-08-19T05:40:46.842Z,99.80
2022-08-19T05:43:16.438Z,99.80
2022-08-19T05:45:45.523Z,99.70
2022-08-19T05:48:14.592Z,99.50
2022-08-19T05:50:46.241Z,99.50
2022-08-19T05:53:17.321Z,99.70
2022-08-19T05:55:45.387Z,99.90
2022-08-19T05:58:13.512Z,99.90
2022-08-19T06:00:42.074Z,99.80
2022-08-19T06:03:11.829Z,99.90
2022-08-19T06:05:52.102Z,99.90
2022-08-19T06:08:34.531Z,99.90
2022-08-19T06:11:20.022Z,99.90
2022-08-19T06:13:51.980Z,99.90
2022-08-19T06:16:28.841Z,99.90
2022-08-19T06:18:58.882Z,99.90
2022-08-19T06:21:31.001Z,99.90
2022-08-19T06:23:59.703Z,99.90
2022-08-19T06:26:28.600Z,99.90
2022-08-19T06:28:56.989Z,99.90
2022-08-19T06:31:27.288Z,99.90
2022-08-19T06:33:55.751Z,99.90
2022-08-19T06:36:32.516Z,99.90
2022-08-19T06:39:02.355Z,99.90
2022-08-19T06:41:31.186Z,99.90
2022-08-19T06:43:59.991Z,99.90
2022-08-19T06:46:28.643Z,99.90
2022-08-19T06:48:57.518Z,99.90
2022-08-19T06:51:26.264Z,99.90
2022-08-19T06:54:03.103Z,99.90
2022-08-19T06:56:34.603Z,99.90
2022-08-19T06:59:03.771Z,99.90
2022-08-19T07:01:31.921Z,99.90
2022-08-19T07:04:02.474Z,99.90
2022-08-19T07:06:44.245Z,99.90
2022-08-19T07:09:18.637Z,99.90
2022-08-19T07:11:48.291Z,99.90
2022-08-19T07:14:19.431Z,99.90
2022-08-19T07:16:49.640Z,99.90
2022-08-19T07:19:23.988Z,99.90
2022-08-19T07:21:53.913Z,99.90
2022-08-19T07:24:25.771Z,99.90
2022-08-19T07:26:55.748Z,99.90
2022-08-19T07:29:25.840Z,99.90
2022-08-19T07:32:00.229Z,99.90
2022-08-19T07:34:31.155Z,99.90
2022-08-19T07:36:59.878Z,99.90
2022-08-19T07:39:32.105Z,99.90
2022-08-19T07:42:02.295Z,99.90
2022-08-19T07:44:30.630Z,99.90
2022-08-19T07:47:01.065Z,99.90
2022-08-19T07:49:30.150Z,99.90
2022-08-19T07:52:02.217Z,99.90
2022-08-19T07:54:35.155Z,99.90
2022-08-19T07:57:03.749Z,99.90
2022-08-19T07:59:32.340Z,99.90
2022-08-19T08:02:01.430Z,99.80
2022-08-19T08:04:47.866Z,99.70
2022-08-19T08:07:33.542Z,99.50
2022-08-19T08:10:03.933Z,98.90
2022-08-19T08:12:36.102Z,99.30
2022-08-19T08:15:12.743Z,99.20
2022-08-19T08:17:49.733Z,98.90
2022-08-19T08:20:21.427Z,98.70
2022-08-19T08:23:07.819Z,98.50
2022-08-19T08:25:38.938Z,98.30
2022-08-19T08:28:09.937Z,97.80
2022-08-19T08:30:42.447Z,97.10
2022-08-19T08:33:13.970Z,97.40
2022-08-19T08:35:43.899Z,96.80
2022-08-19T08:38:12.024Z,97.70
2022-08-19T08:40:47.051Z,97.20
2022-08-19T08:43:27.620Z,97.70
2022-08-19T08:46:03.797Z,96.90
2022-08-19T08:48:41.096Z,97.10
2022-08-19T08:51:13.737Z,96.70
2022-08-19T08:53:51.102Z,97.30
2022-08-19T08:56:26.389Z,96.90
2022-08-19T08:59:01.372Z,96.50
2022-08-19T09:01:30.485Z,96.60
2022-08-19T09:04:02.584Z,96.20
2022-08-19T09:06:40.798Z,96.10
2022-08-19T09:09:16.564Z,95.10
2022-08-19T09:11:57.579Z,95.30
2022-08-19T09:14:50.713Z,94.90
2022-08-19T09:17:29.094Z,95.10
2022-08-19T09:19:59.681Z,95.70
2022-08-19T09:22:29.750Z,95.40
2022-08-19T09:24:58.391Z,94.70
2022-08-19T09:27:42.232Z,94.40
2022-08-19T09:30:15.997Z,93.90
2022-08-19T09:32:44.948Z,93.60
2022-08-19T09:35:14.360Z,93.70
2022-08-19T09:37:43.634Z,93.30
2022-08-19T09:40:13.584Z,93.60
2022-08-19T09:42:50.274Z,93.30
2022-08-19T09:45:23.337Z,93.60
2022-08-19T09:47:54.327Z,93.00
2022-08-19T09:50:23.331Z,92.90
2022-08-19T09:52:55.432Z,92.90
2022-08-19T09:55:31.140Z,92.70
2022-08-19T09:58:03.077Z,92.40
2022-08-19T10:00:31.846Z,93.60
2022-08-19T10:03:00.028Z,91.80
2022-08-19T10:05:48.449Z,92.50
2022-08-19T10:08:17.725Z,92.90
2022-08-19T10:10:47.055Z,92.10
2022-08-19T10:13:19.664Z,91.50
2022-08-19T10:15:49.547Z,91.30
2022-08-19T10:18:19.087Z,91.10
2022-08-19T10:20:51.580Z,90.90
2022-08-19T10:23:21.796Z,91.40
2022-08-19T10:25:50.644Z,91.10
2022-08-19T10:28:20.236Z,91.50
2022-08-19T10:30:48.989Z,92.20
2022-08-19T10:33:39.017Z,92.60
2022-08-19T10:36:08.385Z,92.60
2022-08-19T10:38:36.534Z,92.50
2022-08-19T10:41:12.424Z,92.60
2022-08-19T10:43:42.508Z,92.40
2022-08-19T10:46:14.159Z,92.40
2022-08-19T10:48:45.658Z,92.20
2022-08-19T10:51:31.531Z,92.60
2022-08-19T10:54:00.262Z,91.90
2022-08-19T10:56:46.700Z,91.40
2022-08-19T10:59:17.324Z,91.70
2022-08-19T11:01:47.299Z,91.50
2022-08-19T11:04:18.331Z,90.90
2022-08-19T11:06:48.330Z,91.00
2022-08-19T11:09:18.240Z,89.80
2022-08-19T11:11:48.542Z,90.10
2022-08-19T11:14:21.409Z,90.30
2022-08-19T11:16:50.202Z,88.60
2022-08-19T11:19:20.061Z,88.20
2022-08-19T11:21:49.622Z,87.30
2022-08-19T11:24:21.155Z,87.20
2022-08-19T11:26:51.470Z,88.00
2022-08-19T11:29:26.695Z,85.30
2022-08-19T11:31:55.765Z,85.90
2022-08-19T11:34:27.999Z,85.80
2022-08-19T11:36:59.010Z,85.60
2022-08-19T11:39:28.578Z,84.60
2022-08-19T11:41:56.872Z,86.20
2022-08-19T11:44:26.687Z,85.10
2022-08-19T11:46:55.760Z,85.60
2022-08-19T11:49:24.178Z,85.10
2022-08-19T11:51:53.854Z,85.50
2022-08-19T11:54:22.247Z,84.80
2022-08-19T11:56:50.342Z,86.20
2022-08-19T11:59:18.648Z,86.10
2022-08-19T12:01:48.339Z,86.50
2022-08-19T12:04:16.560Z,85.90
2022-08-19T12:06:46.904Z,84.80
2022-08-19T12:09:16.408Z,85.50
2022-08-19T12:11:44.514Z,86.00
2022-08-19T12:14:15.280Z,84.70
2022-08-19T12:16:51.277Z,84.80
2022-08-19T12:19:22.291Z,83.10
2022-08-19T12:21:51.400Z,85.10
2022-08-19T12:24:23.905Z,85.90
2022-08-19T12:26:53.456Z,86.50
2022-08-19T12:29:23.822Z,85.60
2022-08-19T12:31:53.855Z,87.30
2022-08-19T12:34:22.333Z,86.90
2022-08-19T12:36:51.210Z,86.60
2022-08-19T12:39:19.410Z,86.50
2022-08-19T12:41:51.591Z,85.80
2022-08-19T12:44:28.963Z,86.40
2022-08-19T12:46:59.548Z,85.20
2022-08-19T12:49:52.588Z,84.60
2022-08-19T12:52:23.345Z,82.80
2022-08-19T12:54:54.450Z,83.70
2022-08-19T12:57:29.874Z,81.90
2022-08-19T13:00:01.815Z,83.10
2022-08-19T13:02:38.951Z,83.50
2022-08-19T13:05:11.559Z,83.70
2022-08-19T13:07:40.962Z,82.90
2022-08-19T13:10:12.086Z,78.80
2022-08-19T13:12:40.282Z,78.70
2022-08-19T13:15:10.932Z,75.90
2022-08-19T13:17:42.005Z,76.40
2022-08-19T13:20:11.987Z,76.50
2022-08-19T13:22:40.648Z,78.10
2022-08-19T13:25:09.811Z,77.90
2022-08-19T13:27:38.895Z,77.00
2022-08-19T13:30:27.399Z,77.30
2022-08-19T13:33:16.456Z,77.80
2022-08-19T13:35:48.182Z,77.20
2022-08-19T13:38:17.997Z,77.80
2022-08-19T13:40:47.324Z,79.30
2022-08-19T13:43:23.029Z,81.20
2022-08-19T13:45:56.693Z,82.40
2022-08-19T13:48:27.816Z,83.80
2022-08-19T13:50:56.615Z,83.40
2022-08-19T13:53:24.854Z,82.20
2022-08-19T13:55:54.514Z,82.00
2022-08-19T13:58:23.459Z,82.20
2022-08-19T14:00:51.598Z,82.60
2022-08-19T14:03:19.900Z,82.50
2022-08-19T14:05:49.598Z,82.70
2022-08-19T14:08:18.073Z,83.30
2022-08-19T14:10:46.807Z,83.30
2022-08-19T14:13:18.331Z,83.60
2022-08-19T14:15:46.875Z,84.00
2022-08-19T14:18:15.490Z,83.60
2022-08-19T14:20:44.512Z,83.80
2022-08-19T14:23:14.653Z,84.00
2022-08-19T14:25:43.520Z,83.70
2022-08-19T14:28:11.703Z,83.80
2022-08-19T14:30:40.895Z,84.90
2022-08-19T14:33:09.767Z,85.60
2022-08-19T14:35:38.844Z,86.50
2022-08-19T14:38:08.981Z,86.60
2022-08-19T14:40:38.815Z,87.10
2022-08-19T14:43:07.457Z,87.80
2022-08-19T14:45:38.266Z,87.90
2022-08-19T14:48:06.995Z,87.60
2022-08-19T14:50:36.942Z,87.30
2022-08-19T14:53:09.327Z,87.30
2022-08-19T14:55:45.919Z,87.20
2022-08-19T14:58:28.805Z,86.70
2022-08-19T15:00:59.253Z,86.20
2022-08-19T15:03:28.007Z,86.40
2022-08-19T15:05:58.633Z,85.80
2022-08-19T15:08:28.340Z,85.90
2022-08-19T15:10:58.328Z,85.50
2022-08-19T15:13:28.151Z,85.00
2022-08-19T15:15:58.031Z,85.40
2022-08-19T15:18:26.515Z,84.70
2022-08-19T15:20:55.030Z,84.70
2022-08-19T15:23:23.547Z,85.80
2022-08-19T15:25:54.408Z,84.70
2022-08-19T15:28:24.142Z,84.60
2022-08-19T15:30:52.563Z,84.10
2022-08-19T15:33:21.650Z,84.50
2022-08-19T15:35:52.010Z,84.70
2022-08-19T15:38:23.675Z,84.50
2022-08-19T15:40:52.001Z,83.40
2022-08-19T15:43:22.168Z,83.60
2022-08-19T15:45:51.824Z,82.90
2022-08-19T15:48:21.165Z,83.50
2022-08-19T15:50:49.379Z,83.50
2022-08-19T15:53:17.633Z,83.50
2022-08-19T15:55:48.434Z,83.10
2022-08-19T15:58:34.256Z,84.00
2022-08-19T16:01:26.846Z,84.00
2022-08-19T16:04:15.898Z,83.50
2022-08-19T16:06:46.406Z,83.50
2022-08-19T16:09:15.446Z,83.10
2022-08-19T16:11:46.391Z,82.70
2022-08-19T16:14:15.725Z,81.70
2022-08-19T16:16:46.709Z,81.60
2022-08-19T16:19:16.704Z,81.00
2022-08-19T16:21:46.409Z,80.60
2022-08-19T16:24:17.431Z,80.70
2022-08-19T16:26:46.454Z,80.40
2022-08-19T16:29:22.072Z,79.90
2022-08-19T16:32:05.222Z,79.60
2022-08-19T16:34:34.723Z,79.80
2022-08-19T16:37:02.936Z,80.00
2022-08-19T16:39:31.073Z,79.70
2022-08-19T16:41:59.898Z,80.40
2022-08-19T16:44:29.651Z,80.00
2022-08-19T16:46:59.562Z,79.80
2022-08-19T16:49:54.436Z,80.10
2022-08-19T16:52:20.044Z,80.20
2022-08-19T16:54:49.298Z,80.00
2022-08-19T16:57:17.399Z,79.20
2022-08-19T16:59:49.201Z,79.60
2022-08-19T17:02:18.242Z,79.90
2022-08-19T17:04:57.357Z,80.50
2022-08-19T17:07:26.959Z,81.20
2022-08-19T17:09:55.995Z,81.50
2022-08-19T17:12:31.703Z,81.20
2022-08-19T17:15:00.877Z,81.30
2022-08-19T17:17:29.996Z,81.20
2022-08-19T17:20:00.323Z,81.40
2022-08-19T17:22:28.982Z,81.80
2022-08-19T17:24:58.418Z,82.10
2022-08-19T17:27:32.071Z,82.30
2022-08-19T17:30:02.358Z,82.50
2022-08-19T17:32:35.196Z,82.60
2022-08-19T17:35:05.988Z,83.00
2022-08-19T17:37:34.891Z,82.90
2022-08-19T17:40:03.935Z,82.80
2022-08-19T17:42:32.372Z,83.20
2022-08-19T17:45:00.841Z,83.30
2022-08-19T17:47:29.803Z,83.50
2022-08-19T17:49:59.863Z,83.60
2022-08-19T17:52:29.501Z,83.80
2022-08-19T17:54:57.787Z,83.90
2022-08-19T17:57:26.246Z,83.90
2022-08-19T17:59:54.864Z,84.50
2022-08-19T18:02:27.290Z,85.40
2022-08-19T18:04:58.377Z,86.10
2022-08-19T18:07:26.395Z,87.40
2022-08-19T18:09:57.260Z,87.50
2022-08-19T18:12:30.439Z,87.90
2022-08-19T18:15:00.234Z,88.20
2022-08-19T18:17:28.375Z,88.00
2022-08-19T18:19:56.939Z,87.50
2022-08-19T18:22:28.619Z,87.60
2022-08-19T18:24:59.567Z,87.80
2022-08-19T18:27:28.778Z,88.20
2022-08-19T18:29:59.606Z,88.30
2022-08-19T18:32:31.501Z,88.80
2022-08-19T18:35:02.022Z,89.20
2022-08-19T18:37:30.120Z,89.20
2022-08-19T18:40:17.139Z,88.70
2022-08-19T18:43:04.536Z,88.20
2022-08-19T18:45:50.551Z,88.50
2022-08-19T18:48:36.157Z,88.80
2022-08-19T18:51:04.921Z,89.70
2022-08-19T18:53:34.968Z,89.70
2022-08-19T18:56:05.500Z,90.10
2022-08-19T18:58:35.027Z,90.00
2022-08-19T19:01:11.468Z,90.00
2022-08-19T19:03:42.612Z,90.00
2022-08-19T19:06:10.739Z,90.00
2022-08-19T19:08:40.884Z,90.00
2022-08-19T19:11:10.590Z,90.00
2022-08-19T19:13:41.014Z,90.00
2022-08-19T19:16:11.453Z,90.10
2022-08-19T19:18:39.869Z,89.90
2022-08-19T19:21:08.935Z,89.50
2022-08-19T19:23:40.891Z,89.80
2022-08-19T19:26:11.178Z,89.60
2022-08-19T19:28:45.514Z,89.60
2022-08-19T19:31:15.926Z,89.80
2022-08-19T19:33:45.376Z,90.00
2022-08-19T19:36:14.052Z,90.00
2022-08-19T19:38:48.696Z,90.10
2022-08-19T19:41:21.027Z,90.00
2022-08-19T19:44:04.614Z,90.10
2022-08-19T19:46:38.383Z,90.20
2022-08-19T19:49:07.062Z,90.40
2022-08-19T19:51:37.826Z,90.50
2022-08-19T19:54:06.683Z,90.50
2022-08-19T19:56:36.335Z,90.60
2022-08-19T19:59:04.405Z,90.80
2022-08-19T20:01:32.607Z,90.90
2022-08-19T20:04:02.135Z,91.10
2022-08-19T20:06:30.834Z,91.00
2022-08-19T20:09:10.774Z,91.10
2022-08-19T20:11:43.530Z,91.20
2022-08-19T20:14:13.450Z,91.20
2022-08-19T20:16:43.487Z,91.50
2022-08-19T20:19:12.949Z,91.60
2022-08-19T20:21:45.404Z,91.70
2022-08-19T20:24:17.359Z,91.60
2022-08-19T20:26:47.696Z,91.60
2022-08-19T20:29:39.326Z,91.50
2022-08-19T20:32:11.025Z,91.40
2022-08-19T20:34:39.605Z,91.40
2022-08-19T20:37:09.320Z,91.40
2022-08-19T20:39:37.879Z,91.40
2022-08-19T20:42:07.614Z,91.40
2022-08-19T20:44:36.120Z,91.30
2022-08-19T20:47:04.605Z,91.30
2022-08-19T20:49:33.278Z,91.50
2022-08-19T20:52:01.360Z,91.20
2022-08-19T20:54:29.567Z,91.00
2022-08-19T20:56:58.221Z,90.90
2022-08-19T20:59:27.719Z,91.00
2022-08-19T21:01:57.530Z,90.90
2022-08-19T21:04:26.680Z,91.00
2022-08-19T21:06:54.770Z,91.10
2022-08-19T21:09:23.163Z,91.10
2022-08-19T21:11:51.275Z,91.20
2022-08-19T21:14:19.468Z,91.20
2022-08-19T21:16:49.894Z,91.20
2022-08-19T21:19:22.030Z,91.30
2022-08-19T21:21:52.152Z,91.30
2022-08-19T21:24:20.250Z,91.30
2022-08-19T21:26:51.294Z,91.40
2022-08-19T21:29:20.042Z,91.40
2022-08-19T21:31:50.193Z,91.60
2022-08-19T21:34:18.518Z,91.90
2022-08-19T21:36:46.627Z,91.50
2022-08-19T21:39:14.667Z,91.60
2022-08-19T21:41:43.699Z,91.80
2022-08-19T21:44:11.947Z,91.70
2022-08-19T21:46:40.151Z,91.80
2022-08-19T21:49:09.526Z,91.90
2022-08-19T21:51:38.348Z,92.00
2022-08-19T21:54:06.487Z,92.10
2022-08-19T21:56:35.036Z,91.90
2022-08-19T21:59:04.185Z,92.10
2022-08-19T22:01:32.339Z,92.10
2022-08-19T22:04:00.436Z,92.00
2022-08-19T22:06:29.874Z,92.00
2022-08-19T22:08:58.004Z,92.40
2022-08-19T22:11:27.244Z,92.50
2022-08-19T22:13:56.464Z,92.60
2022-08-19T22:16:25.279Z,92.60
2022-08-19T22:18:53.463Z,92.70
2022-08-19T22:21:37.410Z,92.70
2022-08-19T22:24:10.370Z,92.70
2022-08-19T22:26:38.448Z,92.70
2022-08-19T22:29:07.522Z,92.70
2022-08-19T22:31:37.619Z,92.70
2022-08-19T22:34:07.008Z,92.60
2022-08-19T22:36:35.436Z,92.70
2022-08-19T22:39:04.006Z,92.70
2022-08-19T22:41:34.019Z,92.70
2022-08-19T22:44:02.262Z,92.60
2022-08-19T22:46:33.617Z,92.60
2022-08-19T22:49:01.814Z,92.40
2022-08-19T22:51:49.459Z,92.30
2022-08-19T22:54:17.978Z,92.30
2022-08-19T22:56:47.434Z,92.30
2022-08-19T22:59:15.837Z,92.20
2022-08-19T23:01:43.934Z,92.10
2022-08-19T23:04:12.139Z,92.20
2022-08-19T23:06:42.258Z,92.20
2022-08-19T23:09:10.635Z,92.30
2022-08-19T23:11:42.106Z,92.20
2022-08-19T23:14:12.481Z,92.20
2022-08-19T23:16:41.388Z,92.20
2022-08-19T23:19:10.125Z,92.40
2022-08-19T23:21:38.339Z,92.60
2022-08-19T23:24:06.863Z,92.70
2022-08-19T23:26:36.056Z,92.70
2022-08-19T23:29:23.190Z,92.80
2022-08-19T23:31:52.786Z,92.80
2022-08-19T23:34:20.975Z,92.90
2022-08-19T23:36:50.687Z,93.00
2022-08-19T23:39:19.209Z,93.10
2022-08-19T23:41:47.461Z,93.10
2022-08-19T23:44:15.679Z,93.20
2022-08-19T23:46:55.137Z,93.20
2022-08-19T23:49:26.395Z,93.10
2022-08-19T23:51:56.421Z,93.20
2022-08-19T23:54:27.502Z,93.20
2022-08-19T23:57:14.165Z,93.30
2022-08-19T23:59:45.199Z,93.70
